Time;durP1;ratioP1;P1;durP2;ratioP2;P2;SDS_P1;SDS_P2;PMS_P1;PMS_P2;Temp;Humidity;BMP_temperature;BMP_pressure;BME280_temperature;BME280_humidity;BME280_pressure;Samples;Min_cycle;Max_cycle;Signal;HPM_P1;HPM_P2
2024/01/26 00:02:15;;;;;;;4.50;4.10;;;8.50;99.90;;;;;;5134492;27;20031;-61
2024/01/26 00:04:41;;;;;;;5.38;4.90;;;8.50;99.90;;;;;;5132806;27;20475;-61
2024/01/26 00:07:20;;;;;;;5.28;4.78;;;8.50;99.90;;;;;;5134351;27;20055;-60
2024/01/26 00:09:45;;;;;;;5.57;5.07;;;8.50;99.90;;;;;;5134425;27;20038;-61
2024/01/26 00:12:11;;;;;;;5.43;4.93;;;8.70;99.90;;;;;;5133979;27;20538;-61
2024/01/26 00:14:37;;;;;;;5.63;5.13;;;8.50;99.90;;;;;;5134317;27;20050;-60
2024/01/26 00:17:02;;;;;;;5.88;5.38;;;8.60;99.90;;;;;;5115556;27;20035;-60
2024/01/26 00:19:28;;;;;;;6.47;5.88;;;8.60;99.90;;;;;;5134139;27;20430;-62
2024/01/26 00:21:54;;;;;;;6.22;5.63;;;8.60;99.90;;;;;;5133858;27;20031;-60
2024/01/26 00:24:19;;;;;;;5.75;5.25;;;8.60;99.90;;;;;;5133846;27;20035;-60
2024/01/26 00:26:46;;;;;;;6.22;5.63;;;8.70;99.90;;;;;;5134151;27;20035;-61
2024/01/26 00:29:12;;;;;;;5.70;5.20;;;;;;;;;;5115725;28;20482;-60
2024/01/26 00:31:38;;;;;;;6.63;6.03;;;8.70;99.90;;;;;;5133985;28;20038;-61
2024/01/26 00:34:04;;;;;;;7.05;6.50;;;8.70;99.90;;;;;;5134104;28;20043;-61
2024/01/26 00:36:29;;;;;;;6.82;6.22;;;8.70;99.90;;;;;;5136393;27;20046;-61
2024/01/26 00:38:55;;;;;;;6.00;5.50;;;8.80;99.90;;;;;;5138418;27;20543;-61
2024/01/26 00:41:21;;;;;;;6.07;5.57;;;8.70;99.90;;;;;;5137990;27;20031;-63
2024/01/26 00:43:46;;;;;;;6.70;6.10;;;8.80;99.90;;;;;;5138265;27;20475;-60
2024/01/26 00:46:12;;;;;;;5.88;5.28;;;8.80;99.90;;;;;;5138209;27;20107;-61
2024/01/26 00:48:38;;;;;;;5.70;5.22;;;9.00;99.90;;;;;;5119549;27;20107;-61
2024/01/26 00:51:04;;;;;;;6.13;5.63;;;8.80;99.90;;;;;;5138135;27;20508;-61
2024/01/26 00:53:29;;;;;;;7.03;6.32;;;8.80;99.90;;;;;;5119344;27;20061;-62
2024/01/26 00:55:55;;;;;;;5.68;5.18;;;8.80;99.90;;;;;;5137749;27;20054;-60
2024/01/26 00:58:21;;;;;;;6.68;6.07;;;8.90;99.90;;;;;;5138108;27;20039;-64
2024/01/26 01:00:47;;;;;;;5.78;5.28;;;8.90;99.90;;;;;;5119321;27;20483;-63
2024/01/26 01:03:19;;;;;;;6.53;6.03;;;8.90;99.90;;;;;;5136427;27;20084;-64
2024/01/26 01:05:59;;;;;;;6.15;5.65;;;9.00;99.90;;;;;;5137521;27;20054;-64
2024/01/26 01:08:24;;;;;;;6.38;5.82;;;8.90;99.90;;;;;;5137919;27;20038;-63
2024/01/26 01:10:50;;;;;;;5.78;5.28;;;9.00;99.90;;;;;;5137735;27;20039;-64
2024/01/26 01:13:16;;;;;;;5.97;5.47;;;9.00;99.90;;;;;;5137742;27;20457;-64
2024/01/26 01:15:41;;;;;;;6.13;5.63;;;9.00;99.90;;;;;;5137625;27;20073;-64
2024/01/26 01:18:07;;;;;;;5.38;4.88;;;9.00;99.90;;;;;;5137618;27;20039;-64
2024/01/26 01:20:33;;;;;;;6.22;5.72;;;9.20;99.90;;;;;;5137531;27;20035;-63
2024/01/26 01:22:59;;;;;;;5.72;5.20;;;9.00;99.90;;;;;;5137553;27;20059;-64
2024/01/26 01:25:27;;;;;;;5.93;5.43;;;9.00;99.90;;;;;;5137469;27;20070;-65
2024/01/26 01:27:53;;;;;;;6.10;5.60;;;9.20;99.90;;;;;;5137425;27;20047;-63
2024/01/26 01:30:19;;;;;;;5.75;5.25;;;9.00;99.90;;;;;;5137283;27;20503;-63
2024/01/26 01:32:44;;;;;;;5.50;5.03;;;9.20;99.90;;;;;;5137282;27;20089;-63
2024/01/26 01:35:10;;;;;;;5.45;5.05;;;9.10;99.90;;;;;;5136913;27;20164;-63
2024/01/26 01:37:36;;;;;;;6.55;5.95;;;9.10;99.90;;;;;;5136863;27;20046;-63
2024/01/26 01:40:01;;;;;;;5.72;5.32;;;9.00;99.90;;;;;;5137180;27;20502;-64
2024/01/26 01:42:27;;;;;;;6.72;6.13;;;9.10;99.90;;;;;;5118514;27;20035;-64
2024/01/26 01:44:53;;;;;;;5.65;5.15;;;9.10;99.90;;;;;;5137107;27;20027;-64
2024/01/26 01:47:19;;;;;;;5.63;5.13;;;9.10;99.90;;;;;;5136951;27;20036;-63
2024/01/26 01:49:44;;;;;;;5.57;5.07;;;9.10;99.90;;;;;;5137033;27;20038;-63
2024/01/26 01:52:14;;;;;;;5.50;5.00;;;9.10;99.90;;;;;;5136966;27;20035;-63
2024/01/26 01:54:40;;;;;;;5.80;5.30;;;9.20;99.90;;;;;;5136861;27;20535;-63
2024/01/26 01:57:06;;;;;;;6.20;5.70;;;9.20;99.90;;;;;;5136776;27;20042;-64
2024/01/26 01:59:33;;;;;;;5.55;5.07;;;9.20;99.90;;;;;;5136792;27;20043;-63
2024/01/26 02:01:59;;;;;;;5.95;5.45;;;9.20;99.90;;;;;;5136460;27;20057;-63
2024/01/26 02:04:31;;;;;;;6.03;5.53;;;9.20;99.90;;;;;;5135046;27;20118;-63
2024/01/26 02:07:00;;;;;;;5.65;5.18;;;9.30;99.90;;;;;;5136600;27;20043;-63
2024/01/26 02:09:27;;;;;;;6.18;5.68;;;9.40;99.90;;;;;;5136763;27;20078;-66
2024/01/26 02:11:53;;;;;;;6.28;5.78;;;9.30;99.90;;;;;;5136604;27;20759;-65
2024/01/26 02:14:19;;;;;;;6.07;5.55;;;9.30;99.90;;;;;;5136464;27;20099;-65
2024/01/26 02:16:55;;;;;;;5.88;5.38;;;9.30;99.90;;;;;;5136415;27;20391;-65
2024/01/26 02:19:21;;;;;;;6.13;5.63;;;9.30;99.90;;;;;;5136498;27;20040;-65
2024/01/26 02:21:47;;;;;;;5.65;5.18;;;9.20;99.90;;;;;;5136022;27;20070;-66
2024/01/26 02:24:13;;;;;;;5.40;4.90;;;9.30;99.90;;;;;;5118024;27;20074;-65
2024/01/26 02:26:40;;;;;;;4.93;4.53;;;9.50;99.90;;;;;;5136218;27;20537;-66
2024/01/26 02:29:05;;;;;;;4.93;4.53;;;9.40;99.90;;;;;;5136173;27;20043;-66
2024/01/26 02:31:31;;;;;;;5.45;5.05;;;9.40;99.90;;;;;;5136187;27;20038;-66
2024/01/26 02:33:56;;;;;;;7.15;4.80;;;9.50;99.90;;;;;;5136213;27;20035;-67
2024/01/26 02:36:22;;;;;;;5.18;4.78;;;9.50;99.90;;;;;;5135787;27;20118;-66
2024/01/26 02:38:48;;;;;;;5.20;4.80;;;9.40;99.90;;;;;;5136105;27;20176;-66
2024/01/26 02:41:13;;;;;;;4.90;4.50;;;9.50;99.90;;;;;;5117341;27;20116;-66
2024/01/26 02:43:39;;;;;;;4.75;4.35;;;9.40;99.90;;;;;;5135946;27;20598;-66
2024/01/26 02:46:11;;;;;;;4.90;4.50;;;9.70;99.90;;;;;;5135621;27;20091;-66
2024/01/26 02:48:38;;;;;;;4.80;4.40;;;9.50;99.90;;;;;;5117496;27;20491;-66
2024/01/26 02:51:04;;;;;;;4.43;4.03;;;9.50;99.90;;;;;;5135771;27;20039;-66
2024/01/26 02:53:30;;;;;;;4.40;4.00;;;9.50;99.90;;;;;;5135694;27;20512;-66
2024/01/26 02:55:55;;;;;;;4.13;3.80;;;9.50;99.90;;;;;;5135355;27;20123;-66
2024/01/26 02:58:21;;;;;;;4.32;4.03;;;9.60;99.90;;;;;;5134778;27;20118;-66
2024/01/26 03:00:47;;;;;;;4.05;3.75;;;9.60;99.90;;;;;;5135597;27;20035;-65
2024/01/26 03:03:13;;;;;;;4.57;4.28;;;9.50;99.90;;;;;;5134483;27;20114;-65
2024/01/26 03:05:52;;;;;;;4.57;4.18;;;9.50;99.90;;;;;;5116822;27;20482;-66
2024/01/26 03:08:17;;;;;;;3.83;3.53;;;9.50;99.90;;;;;;5135510;27;20385;-66
2024/01/26 03:10:43;;;;;;;3.40;3.10;;;9.50;99.90;;;;;;5135183;27;20114;-66
2024/01/26 03:13:08;;;;;;;4.30;3.95;;;9.50;99.90;;;;;;5116679;27;20039;-65
2024/01/26 03:15:34;;;;;;;3.78;3.47;;;9.50;99.90;;;;;;5135385;27;20080;-67
2024/01/26 03:18:00;;;;;;;3.47;3.17;;;9.50;99.90;;;;;;5134903;27;20118;-66
2024/01/26 03:20:26;;;;;;;3.83;3.53;;;9.70;99.90;;;;;;5135305;27;20043;-65
2024/01/26 03:22:52;;;;;;;3.53;3.22;;;9.50;99.90;;;;;;5134831;27;20121;-65
2024/01/26 03:25:18;;;;;;;4.03;3.70;;;9.60;99.90;;;;;;5135135;27;20046;-65
2024/01/26 03:27:43;;;;;;;2.95;2.75;;;9.50;99.90;;;;;;5135068;27;20038;-65
2024/01/26 03:30:09;;;;;;;4.00;3.70;;;9.50;99.90;;;;;;5135167;27;20035;-71
2024/01/26 03:32:35;;;;;;;3.45;3.20;;;9.60;99.90;;;;;;5134970;27;20035;-70
2024/01/26 03:35:01;;;;;;;3.72;3.42;;;9.60;99.90;;;;;;5134944;27;20049;-72
2024/01/26 03:37:27;;;;;;;3.50;3.20;;;9.50;99.90;;;;;;5116233;27;20124;-71
2024/01/26 03:39:53;;;;;;;3.50;3.20;;;9.50;99.90;;;;;;5134521;27;20534;-71
2024/01/26 03:42:18;;;;;;;3.63;3.33;;;9.50;99.90;;;;;;5134808;27;20047;-71
2024/01/26 03:44:44;;;;;;;3.90;3.60;;;9.50;99.90;;;;;;5134794;27;20648;-70
2024/01/26 03:47:10;;;;;;;3.58;3.28;;;9.60;99.90;;;;;;5134864;27;20057;-70
2024/01/26 03:49:40;;;;;;;3.47;3.17;;;9.60;99.90;;;;;;5134691;27;20074;-69
2024/01/26 03:52:06;;;;;;;3.38;3.08;;;9.60;99.90;;;;;;5116300;27;20121;-71
2024/01/26 03:54:32;;;;;;;3.42;3.13;;;9.80;99.90;;;;;;5134699;27;20566;-70
2024/01/26 03:56:57;;;;;;;3.65;3.35;;;9.60;99.90;;;;;;5134567;27;20067;-70
2024/01/26 03:59:23;;;;;;;3.70;3.40;;;9.80;99.90;;;;;;5134552;27;20042;-71
2024/01/26 04:01:48;;;;;;;3.70;3.40;;;9.80;99.90;;;;;;5134483;27;20031;-70
2024/01/26 04:04:21;;;;;;;3.67;3.38;;;9.60;99.90;;;;;;5112300;28;20066;-70
2024/01/26 04:07:01;;;;;;;3.85;3.55;;;9.70;99.90;;;;;;5113856;28;20449;-70
2024/01/26 04:09:26;;;;;;;3.63;3.33;;;9.60;99.90;;;;;;5113749;28;20399;-71
2024/01/26 04:11:52;;;;;;;3.85;3.55;;;9.70;99.90;;;;;;5113312;28;20040;-70
2024/01/26 04:14:17;;;;;;;3.63;3.33;;;9.70;99.90;;;;;;5112556;28;20089;-70
2024/01/26 04:16:43;;;;;;;3.83;3.53;;;9.70;99.90;;;;;;5112128;28;20126;-71
2024/01/26 04:19:09;;;;;;;3.67;3.38;;;9.70;99.90;;;;;;5113812;28;20479;-69
2024/01/26 04:21:34;;;;;;;3.60;3.30;;;9.70;99.90;;;;;;5113716;28;20031;-70
2024/01/26 04:24:00;;;;;;;4.00;3.65;;;9.70;99.90;;;;;;5113668;28;20035;-70
2024/01/26 04:26:26;;;;;;;3.35;3.05;;;9.70;99.90;;;;;;5113414;28;20502;-71
2024/01/26 04:28:51;;;;;;;3.75;3.45;;;9.70;99.90;;;;;;5113673;28;20043;-61
2024/01/26 04:31:17;;;;;;;3.83;3.53;;;9.70;99.90;;;;;;5113456;28;20049;-61
2024/01/26 04:33:42;;;;;;;4.03;3.63;;;9.80;99.90;;;;;;5112585;28;20050;-65
2024/01/26 04:36:09;;;;;;;3.50;3.20;;;9.80;99.90;;;;;;5111938;28;20118;-61
2024/01/26 04:38:37;;;;;;;3.53;3.22;;;9.80;99.90;;;;;;5113536;28;20043;-64
2024/01/26 04:41:03;;;;;;;3.55;3.25;;;9.80;99.90;;;;;;5113309;28;20042;-64
2024/01/26 04:43:29;;;;;;;3.47;3.17;;;9.70;99.90;;;;;;5113575;28;20032;-63
2024/01/26 04:45:55;;;;;;;3.58;3.28;;;9.70;99.90;;;;;;5113485;28;20475;-63
2024/01/26 04:48:21;;;;;;;3.38;3.10;;;9.80;99.90;;;;;;5113484;28;20038;-63
2024/01/26 04:50:47;;;;;;;3.33;3.03;;;9.80;99.90;;;;;;5113444;28;20080;-63
2024/01/26 04:53:15;;;;;;;3.60;3.30;;;9.80;99.90;;;;;;5113414;28;20036;-63
2024/01/26 04:55:41;;;;;;;3.55;3.25;;;9.80;99.90;;;;;;5113356;28;20075;-63
2024/01/26 04:58:06;;;;;;;3.42;3.13;;;9.90;99.90;;;;;;5113056;28;20577;-63
2024/01/26 05:00:32;;;;;;;3.58;3.22;;;9.90;99.90;;;;;;5113332;28;20031;-64
2024/01/26 05:02:58;;;;;;;3.90;3.40;;;9.90;99.90;;;;;;5113243;28;20047;-68
2024/01/26 05:05:30;;;;;;;3.10;2.90;;;10.00;99.90;;;;;;5128844;28;20613;-63
2024/01/26 05:07:56;;;;;;;3.55;3.25;;;10.00;99.90;;;;;;5133766;28;20043;-64
2024/01/26 05:10:21;;;;;;;3.38;3.13;;;10.00;99.90;;;;;;5115108;28;20103;-64
2024/01/26 05:12:47;;;;;;;3.25;2.95;;;10.40;99.90;;;;;;5133767;28;20043;-64
2024/01/26 05:15:13;;;;;;;3.33;3.08;;;10.00;99.90;;;;;;5133792;28;20504;-64
2024/01/26 05:17:39;;;;;;;3.45;3.15;;;10.10;99.90;;;;;;5133590;28;20519;-64
2024/01/26 05:20:05;;;;;;;3.58;3.28;;;10.10;99.90;;;;;;5133518;28;20441;-63
2024/01/26 05:22:32;;;;;;;2.45;2.25;;;10.00;99.90;;;;;;5135780;27;20080;-63
2024/01/26 05:24:57;;;;;;;3.72;3.30;;;10.10;99.90;;;;;;5137530;27;20046;-63
2024/01/26 05:27:23;;;;;;;3.58;3.28;;;10.30;99.90;;;;;;5137496;27;20039;-64
2024/01/26 05:29:48;;;;;;;4.03;3.50;;;10.10;99.90;;;;;;5137426;27;20035;-63
2024/01/26 05:32:14;;;;;;;3.80;3.42;;;10.20;99.90;;;;;;5137077;27;20056;-63
2024/01/26 05:34:40;;;;;;;2.95;2.75;;;10.10;99.90;;;;;;5118808;27;20082;-63
2024/01/26 05:37:06;;;;;;;3.40;3.10;;;10.30;99.90;;;;;;5136772;27;20031;-63
2024/01/26 05:39:32;;;;;;;3.40;3.10;;;10.30;99.90;;;;;;5137145;27;20498;-63
2024/01/26 05:41:58;;;;;;;4.35;3.95;;;10.40;99.90;;;;;;5136859;27;20051;-63
2024/01/26 05:44:24;;;;;;;3.60;3.30;;;10.30;99.90;;;;;;5137156;27;20035;-63
2024/01/26 05:46:49;;;;;;;3.83;3.53;;;10.30;99.90;;;;;;5137063;27;20043;-63
2024/01/26 05:49:15;;;;;;;3.85;3.53;;;10.30;99.90;;;;;;5137145;27;20439;-63
2024/01/26 05:51:41;;;;;;;3.95;3.55;;;10.30;99.90;;;;;;5136588;27;20482;-63
2024/01/26 05:54:06;;;;;;;3.50;3.20;;;10.30;99.90;;;;;;5136627;27;20122;-63
2024/01/26 05:56:32;;;;;;;3.00;2.70;;;10.40;99.90;;;;;;5118173;27;20120;-63
2024/01/26 05:58:57;;;;;;;3.40;3.10;;;10.50;99.90;;;;;;5137000;27;20530;-60
2024/01/26 06:01:23;;;;;;;3.33;3.03;;;10.50;99.90;;;;;;5136836;27;20395;-61
2024/01/26 06:03:49;;;;;;;2.92;2.72;;;10.50;99.90;;;;;;5135125;27;20046;-61
2024/01/26 06:06:27;;;;;;;2.67;2.47;;;10.50;99.90;;;;;;5136632;27;20050;-62
2024/01/26 06:08:53;;;;;;;2.97;2.78;;;10.40;99.90;;;;;;5118295;27;20450;-61
2024/01/26 06:11:20;;;;;;;3.95;2.78;;;10.40;99.90;;;;;;5118057;27;20078;-60
2024/01/26 06:13:46;;;;;;;3.35;3.00;;;10.50;99.90;;;;;;5118067;27;20050;-60
2024/01/26 06:16:14;;;;;;;2.80;2.60;;;10.80;99.90;;;;;;5136449;27;20039;-60
2024/01/26 06:18:43;;;;;;;3.20;2.90;;;10.50;99.90;;;;;;5136474;27;20463;-61
2024/01/26 06:21:10;;;;;;;2.30;2.10;;;10.50;99.90;;;;;;5136346;27;20040;-61
2024/01/26 06:23:35;;;;;;;2.78;2.58;;;11.10;99.90;;;;;;5136153;27;20043;-62
2024/01/26 06:26:01;;;;;;;2.83;2.63;;;10.70;99.90;;;;;;5117766;27;20031;-61
2024/01/26 06:28:27;;;;;;;3.15;2.85;;;10.70;99.90;;;;;;5117720;27;20114;-60
2024/01/26 06:30:53;;;;;;;2.67;2.47;;;10.50;99.90;;;;;;5136269;27;20037;-60
2024/01/26 06:33:18;;;;;;;2.72;2.53;;;10.50;99.90;;;;;;5135278;27;20036;-60
2024/01/26 06:35:44;;;;;;;2.70;2.50;;;10.50;99.90;;;;;;5136025;27;20031;-60
2024/01/26 06:38:10;;;;;;;2.47;2.28;;;10.60;99.90;;;;;;5136012;27;20046;-60
2024/01/26 06:40:35;;;;;;;2.55;2.35;;;10.80;99.90;;;;;;5135760;27;20039;-59
2024/01/26 06:43:06;;;;;;;2.30;2.10;;;11.20;99.90;;;;;;5135762;27;20039;-60
2024/01/26 06:45:32;;;;;;;2.78;2.58;;;10.60;99.90;;;;;;5135945;27;20035;-60
2024/01/26 06:47:58;;;;;;;2.03;1.90;;;10.60;99.90;;;;;;5135949;27;20054;-60
2024/01/26 06:50:24;;;;;;;2.30;2.10;;;10.80;99.90;;;;;;5135969;27;20483;-60
2024/01/26 06:52:49;;;;;;;2.40;2.20;;;10.90;99.90;;;;;;5135542;27;20046;-63
2024/01/26 06:55:15;;;;;;;2.33;2.13;;;10.40;99.90;;;;;;5135828;27;20035;-61
2024/01/26 06:57:41;;;;;;;2.20;2.00;;;10.40;99.90;;;;;;5135672;27;20114;-60
2024/01/26 07:00:09;;;;;;;2.40;2.20;;;10.50;99.90;;;;;;5135658;27;20043;-60
2024/01/26 07:02:35;;;;;;;2.10;2.00;;;;;;;;;;5135626;27;20035;-66
2024/01/26 07:05:07;;;;;;;2.05;1.85;;;10.50;99.90;;;;;;5132657;27;20091;-65
2024/01/26 07:07:46;;;;;;;1.83;1.73;;;10.50;99.90;;;;;;5135165;27;20049;-66
2024/01/26 07:10:12;;;;;;;2.13;1.83;;;10.50;99.90;;;;;;5135522;27;20443;-65
2024/01/26 07:12:38;;;;;;;2.00;1.80;;;10.40;99.90;;;;;;5135406;27;20184;-64
2024/01/26 07:15:04;;;;;;;1.70;1.60;;;10.40;99.90;;;;;;5135335;27;20426;-65
2024/01/26 07:17:30;;;;;;;1.60;1.50;;;10.40;99.90;;;;;;5134907;27;20050;-65
2024/01/26 07:19:55;;;;;;;1.83;1.73;;;10.40;99.90;;;;;;5135270;27;20040;-64
2024/01/26 07:22:21;;;;;;;2.00;1.88;;;10.40;99.90;;;;;;5135106;27;20505;-65
2024/01/26 07:24:46;;;;;;;1.58;1.48;;;10.50;99.90;;;;;;5135233;27;20042;-65
2024/01/26 07:27:12;;;;;;;1.58;1.48;;;10.50;99.90;;;;;;5135091;27;20046;-64
2024/01/26 07:29:38;;;;;;;1.67;1.58;;;10.50;99.90;;;;;;5134675;27;20042;-65
2024/01/26 07:32:03;;;;;;;1.65;1.55;;;10.50;99.90;;;;;;5134647;27;20045;-65
2024/01/26 07:34:29;;;;;;;1.70;1.60;;;10.50;99.90;;;;;;5134700;27;20043;-64
2024/01/26 07:36:55;;;;;;;1.42;1.27;;;10.50;99.90;;;;;;5134843;27;20498;-64
2024/01/26 07:39:22;;;;;;;1.20;1.10;;;10.50;99.90;;;;;;5134566;27;20036;-64
2024/01/26 07:41:48;;;;;;;1.50;1.40;;;10.50;99.90;;;;;;5134697;27;20035;-64
2024/01/26 07:44:13;;;;;;;1.17;1.10;;;10.60;99.90;;;;;;5134688;27;20107;-65
2024/01/26 07:46:41;;;;;;;1.42;1.30;;;10.50;99.90;;;;;;5134780;27;20596;-64
2024/01/26 07:49:06;;;;;;;1.33;1.23;;;10.50;99.90;;;;;;5134943;27;20050;-74
2024/01/26 07:51:32;;;;;;;1.08;1.08;;;10.50;99.90;;;;;;5134738;27;20031;-74
2024/01/26 07:53:58;;;;;;;1.00;1.00;;;10.50;99.90;;;;;;5134684;27;20414;-74
2024/01/26 07:56:23;;;;;;;1.17;1.05;;;10.50;99.90;;;;;;5134489;27;20027;-75
2024/01/26 07:58:49;;;;;;;1.00;1.00;;;10.50;99.90;;;;;;5134650;27;20061;-65
2024/01/26 08:01:15;;;;;;;1.30;1.20;;;10.70;99.90;;;;;;5115757;27;20069;-64
2024/01/26 08:03:40;;;;;;;1.08;1.08;;;10.60;99.90;;;;;;5134506;27;20027;-65
2024/01/26 08:06:13;;;;;;;1.38;1.25;;;10.60;99.90;;;;;;5132819;27;20059;-65
2024/01/26 08:08:39;;;;;;;1.30;1.17;;;10.50;99.90;;;;;;5134558;27;20054;-64
2024/01/26 08:11:05;;;;;;;0.90;0.90;;;10.60;99.90;;;;;;5115708;27;20039;-64
2024/01/26 08:13:30;;;;;;;1.02;1.02;;;10.70;99.90;;;;;;5115906;28;20493;-65
2024/01/26 08:15:56;;;;;;;0.95;0.95;;;10.60;99.90;;;;;;5133971;27;20113;-66
2024/01/26 08:18:22;;;;;;;1.40;1.05;;;10.50;99.90;;;;;;5134367;27;20045;-72
2024/01/26 08:20:48;;;;;;;1.02;1.02;;;10.50;99.90;;;;;;5134170;27;20039;-72
2024/01/26 08:23:14;;;;;;;0.90;0.90;;;10.60;99.90;;;;;;5133904;27;20170;-72
2024/01/26 08:25:39;;;;;;;0.85;0.85;;;10.80;99.90;;;;;;5134055;27;20042;-72
2024/01/26 08:28:06;;;;;;;0.68;0.68;;;10.80;99.90;;;;;;5134536;27;20069;-73
2024/01/26 08:30:32;;;;;;;0.70;0.70;;;10.60;99.90;;;;;;5134496;27;20035;-73
2024/01/26 08:32:58;;;;;;;0.77;0.77;;;10.60;99.90;;;;;;5134281;28;20478;-73
2024/01/26 08:35:23;;;;;;;0.70;0.70;;;10.50;99.90;;;;;;5134370;28;20031;-73
2024/01/26 08:37:49;;;;;;;0.70;0.70;;;10.70;99.90;;;;;;5115503;28;20043;-73
2024/01/26 08:40:14;;;;;;;0.60;0.60;;;10.50;99.90;;;;;;5133964;28;20086;-73
2024/01/26 08:42:42;;;;;;;0.63;0.63;;;10.60;99.90;;;;;;5133812;28;20114;-73
2024/01/26 08:45:09;;;;;;;0.80;0.80;;;10.60;99.90;;;;;;5115668;28;20057;-72
2024/01/26 08:47:35;;;;;;;0.73;0.73;;;10.70;99.90;;;;;;5115756;28;20482;-73
2024/01/26 08:50:00;;;;;;;1.00;1.00;;;10.70;99.90;;;;;;5133720;28;20102;-74
2024/01/26 08:52:27;;;;;;;0.80;0.80;;;10.80;99.90;;;;;;5134390;28;20074;-75
2024/01/26 08:54:53;;;;;;;0.60;0.60;;;10.80;99.90;;;;;;5134806;28;20039;-73
2024/01/26 08:57:19;;;;;;;0.70;0.70;;;;;;;;;;5137921;27;20039;-74
2024/01/26 08:59:45;;;;;;;0.95;0.90;;;10.80;99.90;;;;;;5138446;27;20046;-72
2024/01/26 09:02:11;;;;;;;1.10;1.00;;;10.70;99.90;;;;;;5138147;27;20035;-73
2024/01/26 09:04:37;;;;;;;1.35;1.13;;;10.70;99.90;;;;;;5118620;27;20060;-72
2024/01/26 09:07:18;;;;;;;0.93;0.93;;;10.80;99.90;;;;;;5138227;27;20065;-73
2024/01/26 09:09:43;;;;;;;1.30;1.13;;;10.90;99.90;;;;;;5137753;27;20035;-72
2024/01/26 09:12:09;;;;;;;1.95;1.10;;;;;;;;;;5137981;27;20049;-73
2024/01/26 09:14:35;;;;;;;1.77;1.20;;;10.80;99.90;;;;;;5137841;27;20126;-74
2024/01/26 09:17:00;;;;;;;1.52;1.42;;;10.80;99.90;;;;;;5119161;27;20117;-73
2024/01/26 09:19:26;;;;;;;1.10;1.00;;;10.90;99.90;;;;;;5137841;27;20039;-63
2024/01/26 09:21:52;;;;;;;1.38;1.27;;;10.90;99.90;;;;;;5137608;27;20050;-64
2024/01/26 09:24:17;;;;;;;1.40;1.00;;;10.90;99.90;;;;;;5137463;27;20372;-64
2024/01/26 09:26:43;;;;;;;1.95;1.23;;;10.90;99.90;;;;;;5137223;27;20035;-64
2024/01/26 09:29:09;;;;;;;1.90;1.30;;;10.90;99.90;;;;;;5137489;27;20039;-64
2024/01/26 09:31:35;;;;;;;1.30;1.10;;;10.80;99.90;;;;;;5136975;27;20042;-64
2024/01/26 09:34:00;;;;;;;1.25;1.10;;;10.80;99.90;;;;;;5136726;27;20042;-64
2024/01/26 09:36:26;;;;;;;0.80;0.80;;;10.80;99.90;;;;;;5136624;27;20114;-63
2024/01/26 09:38:52;;;;;;;1.63;0.90;;;10.50;99.90;;;;;;5118288;27;20112;-64
2024/01/26 09:41:18;;;;;;;0.60;0.60;;;10.10;99.90;;;;;;5136709;27;20043;-64
2024/01/26 09:43:43;;;;;;;0.85;0.40;;;9.70;99.90;;;;;;5136790;27;20046;-64
2024/01/26 09:46:09;;;;;;;1.17;0.50;;;9.50;99.90;;;;;;5136868;27;20039;-63
2024/01/26 09:48:36;;;;;;;0.50;0.50;;;9.30;99.90;;;;;;5136829;27;20134;-64
2024/01/26 09:51:01;;;;;;;0.47;0.43;;;9.10;99.90;;;;;;5118432;27;20092;-63
2024/01/26 09:53:29;;;;;;;0.88;0.55;;;9.00;99.90;;;;;;5136699;27;20036;-63
2024/01/26 09:55:55;;;;;;;0.73;0.50;;;8.90;99.90;;;;;;5136692;27;20398;-64
2024/01/26 09:58:21;;;;;;;0.50;0.50;;;8.80;99.90;;;;;;5136717;27;20046;-64
2024/01/26 10:00:47;;;;;;;0.60;0.60;;;8.70;99.90;;;;;;5136436;27;20031;-63
2024/01/26 10:03:13;;;;;;;1.25;0.80;;;8.60;99.90;;;;;;5136614;27;20074;-63
2024/01/26 10:05:46;;;;;;;0.52;0.52;;;8.60;99.90;;;;;;5134979;27;20047;-64
2024/01/26 10:08:25;;;;;;;1.63;0.70;;;8.60;99.90;;;;;;5135223;27;20379;-62
2024/01/26 10:10:52;;;;;;;1.33;0.93;;;8.80;99.90;;;;;;5117864;27;20041;-63
2024/01/26 10:13:17;;;;;;;0.80;0.77;;;8.40;99.90;;;;;;5136477;27;20122;-63
2024/01/26 10:15:43;;;;;;;1.08;0.98;;;8.50;99.90;;;;;;5136363;27;20521;-62
2024/01/26 10:18:08;;;;;;;1.27;1.08;;;8.50;99.90;;;;;;5136170;27;20031;-62
2024/01/26 10:20:36;;;;;;;3.20;1.42;;;8.60;99.90;;;;;;5135890;27;20039;-63
2024/01/26 10:23:02;;;;;;;2.67;1.30;;;8.40;99.90;;;;;;5136221;27;20038;-62
2024/01/26 10:25:29;;;;;;;1.70;1.02;;;8.30;99.90;;;;;;5136140;27;20039;-63
2024/01/26 10:27:54;;;;;;;2.25;1.55;;;8.30;99.90;;;;;;5135704;27;20122;-63
2024/01/26 10:30:20;;;;;;;1.33;1.17;;;8.30;99.90;;;;;;5136229;27;20070;-60
2024/01/26 10:32:47;;;;;;;2.00;1.48;;;8.30;99.90;;;;;;5136147;27;20455;-60
2024/01/26 10:35:14;;;;;;;3.13;1.60;;;8.20;99.90;;;;;;5136250;27;20502;-60
2024/01/26 10:37:43;;;;;;;4.55;1.85;;;8.30;99.90;;;;;;5117329;27;20047;-59
2024/01/26 10:40:12;;;;;;;3.83;1.52;;;8.20;99.90;;;;;;5117246;27;20051;-66
2024/01/26 10:42:39;;;;;;;3.15;1.40;;;8.20;99.90;;;;;;5135851;27;20514;-64
2024/01/26 10:45:08;;;;;;;2.28;1.30;;;8.20;99.90;;;;;;5135836;27;20039;-64
2024/01/26 10:47:36;;;;;;;3.88;1.70;;;8.20;99.90;;;;;;5135999;27;20064;-64
2024/01/26 10:50:06;;;;;;;3.25;1.58;;;8.40;99.90;;;;;;5135891;27;20479;-65
2024/01/26 10:52:37;;;;;;;2.00;1.53;;;8.30;99.90;;;;;;5135464;27;20100;-65
2024/01/26 10:55:05;;;;;;;3.25;2.00;;;8.30;99.90;;;;;;5117038;27;20058;-64
2024/01/26 10:57:30;;;;;;;2.10;1.33;;;8.30;99.90;;;;;;5116735;27;20043;-65
2024/01/26 10:59:56;;;;;;;2.97;1.33;;;8.30;99.90;;;;;;5135341;27;20393;-65
2024/01/26 11:02:31;;;;;;;2.17;1.45;;;8.30;99.90;;;;;;5116379;27;20039;-64
2024/01/26 11:05:10;;;;;;;2.83;1.33;;;8.30;99.90;;;;;;5116342;27;20039;-65
2024/01/26 11:07:49;;;;;;;3.08;1.30;;;8.60;99.90;;;;;;5135237;27;20042;-64
2024/01/26 11:10:22;;;;;;;2.33;1.40;;;8.50;99.90;;;;;;5135221;27;20118;-64
2024/01/26 11:13:00;;;;;;;5.25;1.42;;;8.40;99.90;;;;;;5135200;27;20122;-64
2024/01/26 11:15:25;;;;;;;2.35;1.30;;;8.30;99.90;;;;;;5135191;27;20445;-65
2024/01/26 11:17:56;;;;;;;3.30;1.73;;;8.30;99.90;;;;;;5135046;27;20035;-63
2024/01/26 11:20:30;;;;;;;3.05;1.55;;;8.30;99.90;;;;;;5134588;27;20039;-63
2024/01/26 11:23:08;;;;;;;2.38;1.63;;;8.30;99.90;;;;;;5135055;27;20398;-65
2024/01/26 11:25:38;;;;;;;4.20;1.52;;;8.20;99.90;;;;;;5135230;27;20483;-63
2024/01/26 11:28:08;;;;;;;4.13;1.95;;;8.20;99.90;;;;;;5135219;27;20088;-64
2024/01/26 11:30:37;;;;;;;2.88;1.60;;;8.20;99.90;;;;;;5135063;27;20538;-63
2024/01/26 11:33:14;;;;;;;2.95;1.52;;;8.20;99.90;;;;;;5135058;27;20513;-63
2024/01/26 11:35:40;;;;;;;2.70;1.65;;;8.30;99.90;;;;;;5135003;27;20043;-63
2024/01/26 11:38:06;;;;;;;2.63;1.50;;;8.30;99.90;;;;;;5134720;27;20050;-64
2024/01/26 11:40:33;;;;;;;2.35;1.50;;;8.30;99.90;;;;;;5134955;27;20190;-58
2024/01/26 11:42:59;;;;;;;5.10;1.58;;;8.30;99.90;;;;;;5115989;27;20039;-59
2024/01/26 11:45:43;;;;;;;4.20;1.63;;;8.60;99.90;;;;;;5134364;27;20429;-60
2024/01/26 11:48:10;;;;;;;4.80;1.92;;;8.30;99.90;;;;;;5116357;27;20042;-60
2024/01/26 11:50:43;;;;;;;2.88;1.58;;;8.30;99.90;;;;;;5116126;27;20384;-62
2024/01/26 11:53:09;;;;;;;4.88;1.70;;;8.20;99.90;;;;;;5134571;27;20039;-62
2024/01/26 11:55:38;;;;;;;2.50;1.92;;;8.20;99.90;;;;;;5134558;27;20123;-62
2024/01/26 11:58:06;;;;;;;3.30;1.55;;;8.20;99.90;;;;;;5134461;27;20165;-62
2024/01/26 12:00:46;;;;;;;4.00;1.60;;;8.20;99.90;;;;;;5134201;27;20043;-62
2024/01/26 12:03:26;;;;;;;3.25;1.70;;;8.30;99.90;;;;;;5134392;27;20095;-62
2024/01/26 12:05:58;;;;;;;3.63;1.35;;;8.20;99.90;;;;;;5132862;27;20464;-62
2024/01/26 12:08:31;;;;;;;2.35;1.10;;;8.20;99.90;;;;;;5117021;27;20047;-62
2024/01/26 12:10:57;;;;;;;2.03;1.60;;;8.10;99.90;;;;;;5115997;27;20490;-62
2024/01/26 12:13:23;;;;;;;1.35;1.20;;;8.10;99.90;;;;;;5134232;27;20039;-62
2024/01/26 12:15:50;;;;;;;2.00;1.30;;;;;;;;;;5133883;27;20061;-63
2024/01/26 12:18:16;;;;;;;5.10;2.10;;;8.20;99.90;;;;;;5134062;27;20051;-61
2024/01/26 12:20:42;;;;;;;3.88;1.42;;;8.10;99.90;;;;;;5134062;27;20448;-62
2024/01/26 12:23:17;;;;;;;2.67;1.40;;;8.10;99.90;;;;;;5133793;27;20035;-61
2024/01/26 12:25:43;;;;;;;1.75;1.30;;;8.20;99.90;;;;;;5134049;27;20066;-62
2024/01/26 12:28:09;;;;;;;2.22;1.25;;;8.20;99.90;;;;;;5134118;27;20078;-62
2024/01/26 12:30:35;;;;;;;3.88;1.67;;;8.20;99.90;;;;;;5133587;27;20497;-62
2024/01/26 12:33:06;;;;;;;2.72;1.42;;;8.10;99.90;;;;;;5133204;27;20039;-62
2024/01/26 12:35:39;;;;;;;1.88;1.40;;;8.10;99.90;;;;;;5134066;28;20474;-62
2024/01/26 12:38:09;;;;;;;3.63;1.33;;;8.10;99.90;;;;;;5133763;28;20479;-62
2024/01/26 12:40:34;;;;;;;2.08;1.25;;;8.70;99.90;;;;;;5133766;28;20043;-62
2024/01/26 12:43:03;;;;;;;5.47;1.85;;;8.00;99.90;;;;;;5134020;28;20035;-62
2024/01/26 12:45:29;;;;;;;2.78;1.80;;;8.00;99.90;;;;;;5133954;28;20046;-61
2024/01/26 12:47:55;;;;;;;5.20;1.88;;;7.80;99.90;;;;;;5115122;28;20475;-62
2024/01/26 12:50:21;;;;;;;3.17;1.77;;;8.00;99.90;;;;;;5133842;28;20043;-75
2024/01/26 12:52:47;;;;;;;2.90;1.10;;;8.00;99.90;;;;;;5133827;28;20502;-73
2024/01/26 12:55:13;;;;;;;2.55;1.42;;;8.10;99.90;;;;;;5133940;28;20054;-73